Relevés horaires Elsenborn (Belgique)


Relevés horaires à Elsenborn - Lundi 17 Févr. 2020
Heure UTC1 Température [°C] Vent [km/h] Hum. [%] Pres.4 [hPa] Visi. [Km] Nébu. [octa] Préc.5 [mm] Cond.
2m. Res. Ros. Dir.2 Vit. Moy. Raf.3
23:00 3.0 0.4 2.4 O 9.3 -- 22.2 96 1020.2(2.2/3h) 5 -- -- Il y a de la pluie faible et continue à la station au moment de l'observation
22:00 3.7 0.5 1.8 OSO 13.0 -- 27.8 87 1019.1(1.7/3h) 19 -- -- NA
21:00 3.7 0.9 2.0 OSO 11.1 -- 29.6 89 1018.7(1.6/3h) 15 -- -- NA
20:00 4.9 1.7 0.9 OSO 14.8 -- 29.6 75 1017.3(1.2/3h) 20 -- -- --
19:00 4.8 2.6 1.7 SO 9.3 -- 18.5 80 1017(1.4/3h) 20 -- -- --
18:00 4.5 2.7 1.6 SO 7.4 -- 25.9 81 1016.7(1.3/3h) 20 -- 0.8/12h
NA
17:00 4.5 2.2 1.5 OSO 9.3 -- 18.5 81 1016.1(1.1/3h) 20 -- -- --
16:00 4.6 2.8 2.8 SO 7.4 -- 20.4 88 1015.5(0.2/3h) 20 -- -- NA
15:00 5.1 3.4 3.0 SO 7.4 -- 25.9 86 1015.1(0.0/3h) 20 -- -- NA
14:00 6.0 4 2.1 OSO 9.3 -- 24.1 76 1014.5(-0.7/3h) 20 -- -- NA
13:00 6.1 3.4 -- OSO 13.0 -- 25.9 -- 1015(-0.4/3h) 20 -- -- --
12:00 6.3 4 1.8 SO 11.1 -- 22.2 73 1014.7(-0.3/3h) 20 -- -- --
11:00 5.3 3.2 1.9 SO 9.3 -- 16.7 79 1015.6(0.3/3h) 20 -- -- --
10:00 4.6 2.8 2.4 SSO 7.4 -- 14.8 86 1015.7(0.4/3h) 20 -- -- --
09:00 4.4 3.2 2.6 SO 5.6 -- 18.5 88 1015.7(0.4/3h) 20 -- -- --
08:00 4.0 2.1 2.6 SO 7.4 -- 16.7 91 1015.3(0.2/3h) 20 -- -- --
07:00 3.9 2 2.5 SSO 7.4 -- 13.0 91 1015.3(0.2/3h) 20 -- -- --
06:00 3.7 1.8 2.0 SSO 7.4 -- 20.4 89 1015.2(0.6/3h) 20 -- 5/12h
NA
05:00 4.0 2.1 2.2 SO 7.4 -- 14.8 88 1015.1(1.4/3h) 20 -- -- --
04:00 4.0 2.1 2.4 OSO 7.4 -- 16.7 89 1015(1.3/3h) 20 -- -- --
03:00 4.1 1.7 2.6 OSO 9.3 -- 20.4 90 1014.3(3.2/3h) 20 -- -- NA
02:00 4.0 1.2 2.7 OSO 11.1 -- 20.4 91 1013.5(2.9/3h) 20 -- -- --
01:00 4.3 2 3.0 OSO 9.3 -- 20.4 91 1013.3(2.8/3h) 20 -- -- NA
00:00 4.1 1.3 3.3 SO 11.1 -- 37.0 95 1011(1.4/3h) 19 -- 5/6h
Il y a de la pluie faible et continue à la station au moment de l'observation

1 Coordinated Universal Time. Actuellement il est 23:00 locale et 21:00 UTC.

2 Le vent souffle depuis la direction indiquée vers la direction oposée.

3 Les rafales max. sont disponible 40 min après l'heure du relevé.

4 Pour les stations d'altitude (plus de 600m) le géopotentiel du niveau le plus proche de la pression obligatoire est indiqué.

5 Les stations disposant d'un diffuseur peuvent indiquer "trace". Cela signifie que des précipitations ont touchés le sol mais que la quantité est inférieure à 0.1 mm.

Récapitulatif de la journée
Température [°C] Vent [km/h] Ensoleillement4 [h] Precipitations totale5 [mm] Pression [Hpa]
Min1 Max.2 Moy.3 Max. Min Max.
3.7 6.5 0 37.0 0 h 0 min 0 1011.0 1020.2

1 Température minimale relevée entre 18:00 UTC la veille et 18:00 UTC le jour donné.

2 Température maximale relevée entre 06:00 UTC le jour donné et 06:00 UTC le lendemain.

3 Vent moyen de la journée basé sur les relevés horaires.

4 Ensoleillement en heures relevé entre 06:00 UTC la veille et 06:00 UTC le jour donné.

5 Précipitations totales tombées entre 06:00 UTC la jour donné et 06:00 UTC le lendemain.

Graphiques horaires